createdAt,value
2023-11-07T00:02:20.579Z,3.38
2023-11-07T00:04:50.379Z,3.51
2023-11-07T00:07:20.247Z,3.32
2023-11-07T00:09:53.173Z,3.40
2023-11-07T00:12:23.631Z,3.36
2023-11-07T00:14:53.626Z,3.37
2023-11-07T00:17:23.383Z,3.49
2023-11-07T00:19:53.206Z,3.23
2023-11-07T00:22:24.050Z,3.65
2023-11-07T00:24:57.547Z,3.35
2023-11-07T00:27:29.313Z,3.47
2023-11-07T00:29:59.745Z,3.27
2023-11-07T00:32:29.668Z,3.33
2023-11-07T00:34:59.495Z,3.32
2023-11-07T00:37:29.356Z,3.08
2023-11-07T00:40:01.786Z,3.44
2023-11-07T00:42:29.131Z,3.35
2023-11-07T00:44:58.951Z,3.46
2023-11-07T00:47:28.921Z,3.15
2023-11-07T00:49:58.903Z,2.89
2023-11-07T00:52:29.551Z,2.98
2023-11-07T00:55:01.918Z,3.11
2023-11-07T00:57:31.657Z,3.10
2023-11-07T01:00:01.503Z,2.98
2023-11-07T01:02:31.494Z,3.05
2023-11-07T01:05:01.446Z,2.99
2023-11-07T01:07:31.269Z,3.18
2023-11-07T01:10:04.066Z,3.03
2023-11-07T01:12:33.914Z,3.14
2023-11-07T01:15:04.649Z,3.21
2023-11-07T01:17:34.906Z,2.86
2023-11-07T01:20:07.811Z,3.05
2023-11-07T01:22:37.606Z,2.99
2023-11-07T01:25:10.654Z,2.87
2023-11-07T01:27:40.783Z,2.84
2023-11-07T01:30:14.125Z,3.00
2023-11-07T01:32:44.415Z,3.09
2023-11-07T01:35:14.913Z,3.07
2023-11-07T01:37:44.797Z,3.24
2023-11-07T01:40:17.555Z,3.08
2023-11-07T01:42:48.001Z,3.01
2023-11-07T01:45:18.290Z,3.42
2023-11-07T01:47:48.818Z,3.14
2023-11-07T01:50:19.307Z,3.07
2023-11-07T01:52:49.289Z,3.11
2023-11-07T01:55:21.740Z,3.12
2023-11-07T01:57:51.915Z,3.04
2023-11-07T02:00:22.512Z,3.36
2023-11-07T02:02:52.951Z,3.34
2023-11-07T02:05:22.786Z,3.25
2023-11-07T02:07:52.585Z,3.41
2023-11-07T02:10:25.353Z,3.36
2023-11-07T02:12:55.192Z,3.29
2023-11-07T02:15:23.543Z,3.21
2023-11-07T02:17:54.069Z,3.31
2023-11-07T02:20:25.008Z,3.06
2023-11-07T02:22:57.462Z,3.16
2023-11-07T02:25:29.862Z,3.36
2023-11-07T02:27:59.716Z,3.19
2023-11-07T02:30:29.599Z,3.41
2023-11-07T02:33:00.301Z,3.18
2023-11-07T02:35:30.058Z,3.60
2023-11-07T02:37:59.804Z,3.61
2023-11-07T02:40:32.306Z,3.56
2023-11-07T02:43:03.945Z,3.42
2023-11-07T02:45:33.788Z,3.58
2023-11-07T02:48:03.797Z,3.61
2023-11-07T02:50:33.879Z,3.67
2023-11-07T02:53:03.621Z,3.53
2023-11-07T02:55:36.646Z,3.41
2023-11-07T02:58:06.730Z,3.41
2023-11-07T03:00:36.535Z,3.51
2023-11-07T03:03:06.551Z,3.60
2023-11-07T03:05:37.070Z,3.36
2023-11-07T03:08:08.189Z,3.56
2023-11-07T03:10:40.846Z,3.38
2023-11-07T03:13:10.715Z,3.43
2023-11-07T03:15:40.410Z,3.60
2023-11-07T03:18:11.860Z,3.62
2023-11-07T03:20:41.749Z,3.47
2023-11-07T03:23:11.637Z,3.02
2023-11-07T03:25:44.013Z,3.39
2023-11-07T03:28:14.007Z,3.72
2023-11-07T03:30:43.999Z,3.35
2023-11-07T03:33:13.839Z,3.52
2023-11-07T03:35:44.663Z,3.48
2023-11-07T03:38:15.950Z,3.45
2023-11-07T03:40:48.512Z,3.37
2023-11-07T03:43:18.432Z,3.32
2023-11-07T03:45:48.449Z,3.48
2023-11-07T03:48:18.351Z,3.32
2023-11-07T03:50:48.169Z,3.25
2023-11-07T03:53:18.011Z,3.44
2023-11-07T03:55:52.175Z,3.48
2023-11-07T03:58:21.990Z,3.53
2023-11-07T04:00:52.385Z,3.71
2023-11-07T04:03:23.730Z,3.32
2023-11-07T04:05:55.181Z,3.51
2023-11-07T04:08:25.713Z,3.77
2023-11-07T04:10:58.088Z,3.74
2023-11-07T04:13:28.913Z,3.55
2023-11-07T04:15:59.382Z,3.41
2023-11-07T04:18:29.809Z,3.77
2023-11-07T04:21:00.639Z,4.05
2023-11-07T04:23:30.654Z,3.77
2023-11-07T04:26:04.297Z,3.97
2023-11-07T04:28:35.407Z,3.70
2023-11-07T04:31:05.171Z,3.91
2023-11-07T04:33:35.749Z,3.78
2023-11-07T04:36:07.051Z,4.05
2023-11-07T04:38:38.023Z,3.67
2023-11-07T04:41:10.613Z,3.64
2023-11-07T04:43:41.048Z,3.91
2023-11-07T04:46:10.876Z,4.04
2023-11-07T04:48:40.731Z,3.84
2023-11-07T04:51:11.155Z,4.33
2023-11-07T04:53:41.244Z,3.96
2023-11-07T04:56:13.888Z,4.15
2023-11-07T04:58:56.755Z,4.16
2023-11-07T05:01:28.709Z,4.23
2023-11-07T05:03:59.468Z,4.14
2023-11-07T05:06:29.417Z,4.09
2023-11-07T05:09:00.142Z,4.25
2023-11-07T05:11:32.705Z,4.30
2023-11-07T05:14:02.426Z,4.14
2023-11-07T05:16:32.121Z,4.45
2023-11-07T05:19:02.006Z,4.48
2023-11-07T05:21:31.788Z,4.59
2023-11-07T05:24:01.703Z,4.44
2023-11-07T05:26:34.063Z,4.28
2023-11-07T05:29:04.514Z,4.39
2023-11-07T05:31:34.584Z,4.55
2023-11-07T05:34:04.632Z,4.45
2023-11-07T05:36:34.385Z,4.56
2023-11-07T05:39:04.238Z,4.52
2023-11-07T05:41:36.818Z,4.71
2023-11-07T05:44:06.550Z,4.45
2023-11-07T05:46:36.297Z,4.39
2023-11-07T05:49:06.185Z,4.47
2023-11-07T05:51:35.941Z,4.59
2023-11-07T05:54:05.668Z,4.48
2023-11-07T05:56:38.001Z,4.53
2023-11-07T05:59:08.761Z,4.61
2023-11-07T06:01:38.655Z,4.46
2023-11-07T06:04:11.174Z,4.44
2023-11-07T06:06:40.977Z,4.55
2023-11-07T06:09:11.146Z,4.41
2023-11-07T06:11:43.534Z,4.33
2023-11-07T06:14:13.229Z,4.55
2023-11-07T06:16:43.351Z,4.69
2023-11-07T06:19:13.609Z,4.83
2023-11-07T06:21:43.457Z,4.85
2023-11-07T06:24:13.229Z,4.47
2023-11-07T06:26:45.620Z,4.56
2023-11-07T06:29:16.168Z,4.60
2023-11-07T06:31:47.073Z,4.60
2023-11-07T06:34:18.066Z,4.88
2023-11-07T06:36:48.743Z,4.71
2023-11-07T06:39:19.824Z,4.90
2023-11-07T06:41:52.541Z,4.52
2023-11-07T06:44:22.306Z,4.78
2023-11-07T06:46:53.362Z,4.95
2023-11-07T06:49:23.294Z,4.87
2023-11-07T06:51:53.155Z,5.02
2023-11-07T06:54:22.866Z,4.78
2023-11-07T06:56:55.235Z,4.54
2023-11-07T06:59:24.976Z,4.84
2023-11-07T07:01:54.796Z,5.04
2023-11-07T07:04:24.508Z,4.97
2023-11-07T07:06:54.390Z,4.54
2023-11-07T07:09:24.177Z,4.60
2023-11-07T07:11:56.837Z,4.94
2023-11-07T07:14:26.604Z,5.00
2023-11-07T07:16:56.349Z,4.70
2023-11-07T07:19:26.437Z,4.71
2023-11-07T07:21:57.256Z,4.79
2023-11-07T07:24:29.053Z,5.02
2023-11-07T07:27:01.739Z,4.85
2023-11-07T07:29:31.513Z,4.72
2023-11-07T07:32:04.056Z,5.10
2023-11-07T07:34:33.863Z,4.85
2023-11-07T07:37:04.793Z,5.15
2023-11-07T07:39:36.625Z,6.13
2023-11-07T07:42:13.037Z,6.73
2023-11-07T07:44:43.042Z,6.31
2023-11-07T07:47:12.955Z,6.57
2023-11-07T07:49:42.861Z,6.92
2023-11-07T07:52:12.973Z,7.43
2023-11-07T07:55:01.114Z,5.54
2023-11-07T07:57:38.280Z,5.23
2023-11-07T08:00:13.458Z,5.15
2023-11-07T08:02:45.614Z,4.98
2023-11-07T08:05:18.953Z,4.65
2023-11-07T08:07:48.830Z,4.90
2023-11-07T08:10:23.700Z,5.31
2023-11-07T08:12:57.709Z,5.33
2023-11-07T08:15:28.167Z,5.15
2023-11-07T08:17:57.959Z,5.24
2023-11-07T08:20:27.824Z,5.21
2023-11-07T08:22:57.536Z,5.22
2023-11-07T08:25:29.315Z,5.51
2023-11-07T08:28:01.884Z,5.35
2023-11-07T08:30:31.909Z,5.68
2023-11-07T08:33:01.879Z,5.31
2023-11-07T08:35:32.322Z,5.42
2023-11-07T08:38:02.058Z,5.47
2023-11-07T08:40:31.894Z,5.41
2023-11-07T08:43:04.563Z,5.79
2023-11-07T08:45:34.917Z,5.63
2023-11-07T08:48:04.947Z,5.59
2023-11-07T08:50:35.232Z,5.59
2023-11-07T08:53:06.993Z,5.43
2023-11-07T08:55:37.853Z,5.42
2023-11-07T08:58:10.195Z,5.35
2023-11-07T09:00:40.776Z,5.34
2023-11-07T09:03:10.558Z,5.39
2023-11-07T09:05:41.674Z,5.80
2023-11-07T09:08:11.926Z,5.46
2023-11-07T09:10:41.982Z,5.32
2023-11-07T09:13:15.342Z,5.39
2023-11-07T09:15:45.877Z,5.26
2023-11-07T09:18:16.441Z,5.64
2023-11-07T09:20:47.138Z,5.21
2023-11-07T09:23:16.854Z,5.24
2023-11-07T09:25:47.137Z,5.21
2023-11-07T09:28:19.706Z,5.44
2023-11-07T09:30:49.439Z,5.45
2023-11-07T09:33:20.722Z,5.09
2023-11-07T09:35:51.245Z,4.91
2023-11-07T09:38:20.948Z,5.12
2023-11-07T09:40:50.948Z,4.98
2023-11-07T09:43:28.195Z,5.12
2023-11-07T09:46:02.390Z,4.42
2023-11-07T09:48:32.284Z,4.83
2023-11-07T09:51:02.469Z,4.88
2023-11-07T09:53:34.427Z,4.43
2023-11-07T09:56:12.392Z,4.68
2023-11-07T09:58:49.327Z,4.23
2023-11-07T10:01:20.476Z,4.60
2023-11-07T10:03:52.912Z,4.49
2023-11-07T10:06:22.809Z,4.54
2023-11-07T10:08:52.536Z,4.64
2023-11-07T10:11:22.404Z,4.29
2023-11-07T10:14:05.136Z,4.09
2023-11-07T10:16:39.225Z,3.89
2023-11-07T10:19:09.423Z,3.89
2023-11-07T10:21:39.494Z,4.14
2023-11-07T10:24:11.458Z,4.02
2023-11-07T10:26:52.781Z,3.92
2023-11-07T10:29:37.952Z,4.22
2023-11-07T10:32:11.702Z,3.75
2023-11-07T10:34:41.924Z,4.02
2023-11-07T10:37:12.571Z,3.31
2023-11-07T10:39:42.419Z,3.12
2023-11-07T10:42:20.824Z,3.48
2023-11-07T10:45:05.166Z,3.31
2023-11-07T10:47:39.429Z,3.45
2023-11-07T10:50:11.583Z,3.53
2023-11-07T10:52:41.259Z,3.19
2023-11-07T10:55:11.431Z,3.17
2023-11-07T10:57:45.100Z,2.78
2023-11-07T11:00:21.871Z,3.01
2023-11-07T11:02:57.097Z,2.59
2023-11-07T11:05:28.092Z,2.65
2023-11-07T11:08:00.938Z,3.04
2023-11-07T11:10:32.238Z,2.78
2023-11-07T11:13:02.037Z,2.77
2023-11-07T11:15:36.316Z,2.69
2023-11-07T11:18:09.501Z,2.48
2023-11-07T11:20:46.000Z,2.31
2023-11-07T11:23:24.455Z,2.34
2023-11-07T11:26:06.287Z,2.19
2023-11-07T11:28:42.618Z,2.19
2023-11-07T11:31:22.373Z,2.30
2023-11-07T11:33:52.734Z,2.26
2023-11-07T11:36:33.928Z,2.37
2023-11-07T11:39:08.044Z,2.17
2023-11-07T11:42:13.777Z,2.32
2023-11-07T11:44:44.137Z,2.59
2023-11-07T11:47:43.907Z,2.53
2023-11-07T11:50:21.131Z,2.60
2023-11-07T11:52:52.737Z,2.60
2023-11-07T11:55:22.593Z,2.86
2023-11-07T11:58:07.648Z,2.59
2023-11-07T12:00:42.572Z,2.79
2023-11-07T12:03:20.774Z,2.68
2023-11-07T12:06:07.099Z,2.73
2023-11-07T12:08:37.703Z,2.82
2023-11-07T12:11:08.222Z,2.87
2023-11-07T12:13:38.459Z,2.77
2023-11-07T12:16:13.869Z,2.86
2023-11-07T12:18:48.535Z,2.67
2023-11-07T12:21:26.208Z,2.76
2023-11-07T12:23:57.665Z,2.66
2023-11-07T12:26:45.300Z,3.01
2023-11-07T12:29:17.654Z,2.92
2023-11-07T12:31:47.761Z,2.93
2023-11-07T12:34:33.065Z,3.50
2023-11-07T12:37:04.929Z,3.37
2023-11-07T12:39:35.742Z,3.05
2023-11-07T12:42:05.978Z,3.27
2023-11-07T12:44:35.827Z,3.32
2023-11-07T12:47:09.903Z,3.05
2023-11-07T12:49:45.502Z,3.02
2023-11-07T12:52:16.247Z,3.12
2023-11-07T12:54:45.968Z,3.27
2023-11-07T12:57:18.494Z,3.62
2023-11-07T13:00:00.784Z,3.44
2023-11-07T13:02:30.583Z,3.56
2023-11-07T13:05:03.038Z,3.51
2023-11-07T13:07:32.773Z,3.53
2023-11-07T13:10:02.596Z,3.10
2023-11-07T13:12:32.397Z,3.32
2023-11-07T13:15:02.213Z,3.21
2023-11-07T13:17:35.473Z,2.97
2023-11-07T13:20:11.244Z,3.17
2023-11-07T13:22:41.819Z,3.35
2023-11-07T13:25:12.553Z,3.41
2023-11-07T13:27:44.092Z,3.23
2023-11-07T13:30:15.243Z,2.79
2023-11-07T13:32:45.471Z,2.94
2023-11-07T13:35:17.872Z,2.53
2023-11-07T13:37:47.732Z,2.50
2023-11-07T13:40:18.262Z,2.58
2023-11-07T13:42:48.008Z,2.59
2023-11-07T13:45:19.111Z,2.84
2023-11-07T13:47:49.105Z,2.72
2023-11-07T13:50:21.571Z,2.85
2023-11-07T13:52:57.467Z,2.81
2023-11-07T13:55:28.740Z,2.22
2023-11-07T13:57:58.867Z,2.25
2023-11-07T14:00:29.149Z,2.29
2023-11-07T14:02:59.054Z,2.31
2023-11-07T14:05:31.651Z,2.21
2023-11-07T14:08:02.616Z,2.30
2023-11-07T14:10:33.176Z,2.36
2023-11-07T14:13:03.067Z,2.31
2023-11-07T14:15:36.749Z,2.41
2023-11-07T14:18:13.619Z,2.42
2023-11-07T14:20:54.776Z,2.54
2023-11-07T14:23:24.559Z,2.50
2023-11-07T14:25:54.779Z,2.65
2023-11-07T14:28:25.678Z,2.72
2023-11-07T14:30:58.082Z,2.68
2023-11-07T14:33:30.846Z,2.42
2023-11-07T14:36:05.351Z,2.78
2023-11-07T14:38:35.746Z,2.72
2023-11-07T14:41:08.299Z,2.56
2023-11-07T14:43:38.866Z,2.64
2023-11-07T14:46:09.424Z,2.80
2023-11-07T14:48:43.362Z,2.64
2023-11-07T14:51:15.836Z,2.78
2023-11-07T14:53:45.590Z,2.59
2023-11-07T14:56:15.601Z,2.55
2023-11-07T14:58:47.145Z,2.83
2023-11-07T15:01:18.802Z,2.65
2023-11-07T15:03:49.109Z,2.67
2023-11-07T15:06:21.990Z,2.57
2023-11-07T15:08:51.944Z,2.45
2023-11-07T15:11:21.991Z,2.47
2023-11-07T15:13:57.127Z,2.38
2023-11-07T15:16:27.385Z,2.46
2023-11-07T15:18:58.052Z,2.39
2023-11-07T15:21:33.629Z,2.63
2023-11-07T15:24:04.804Z,2.60
2023-11-07T15:26:35.189Z,2.50
2023-11-07T15:29:05.775Z,2.82
2023-11-07T15:31:35.862Z,2.70
2023-11-07T15:34:06.493Z,2.71
2023-11-07T15:36:39.084Z,2.88
2023-11-07T15:39:13.828Z,2.71
2023-11-07T15:41:44.141Z,2.74
2023-11-07T15:44:14.219Z,2.73
2023-11-07T15:46:44.809Z,2.70
2023-11-07T15:49:16.629Z,2.83
2023-11-07T15:51:49.408Z,2.75
2023-11-07T15:54:19.644Z,2.95
2023-11-07T15:56:50.791Z,2.52
2023-11-07T15:59:20.674Z,2.55
2023-11-07T16:01:51.032Z,2.61
2023-11-07T16:04:21.168Z,2.46
2023-11-07T16:06:54.102Z,2.44
2023-11-07T16:09:24.825Z,2.46
2023-11-07T16:11:54.761Z,2.47
2023-11-07T16:14:24.696Z,2.43
2023-11-07T16:16:54.519Z,2.23
2023-11-07T16:19:26.018Z,2.30
2023-11-07T16:21:58.936Z,2.23
2023-11-07T16:24:29.027Z,2.70
2023-11-07T16:26:59.125Z,2.82
2023-11-07T16:29:29.176Z,2.66
2023-11-07T16:31:59.067Z,3.14
2023-11-07T16:34:29.960Z,2.82
2023-11-07T16:37:02.536Z,2.83
2023-11-07T16:39:32.574Z,2.89
2023-11-07T16:42:03.215Z,3.29
2023-11-07T16:44:43.070Z,3.56
2023-11-07T16:47:14.029Z,3.41
2023-11-07T16:49:44.585Z,3.10
2023-11-07T16:52:17.344Z,3.29
2023-11-07T16:54:47.526Z,3.10
2023-11-07T16:57:19.667Z,3.14
2023-11-07T16:59:49.823Z,3.70
2023-11-07T17:02:20.496Z,3.86
2023-11-07T17:04:50.738Z,3.44
2023-11-07T17:07:23.949Z,3.41
2023-11-07T17:09:53.722Z,3.53
2023-11-07T17:12:26.455Z,3.17
2023-11-07T17:14:57.119Z,3.20
2023-11-07T17:17:26.944Z,3.30
2023-11-07T17:19:56.749Z,3.02
2023-11-07T17:22:29.102Z,2.97
2023-11-07T17:24:58.801Z,3.17
2023-11-07T17:27:28.666Z,3.29
2023-11-07T17:29:58.530Z,3.45
2023-11-07T17:32:28.280Z,3.41
2023-11-07T17:35:00.936Z,3.31
2023-11-07T17:37:33.361Z,3.37
2023-11-07T17:40:04.449Z,7.70
2023-11-07T17:42:34.189Z,7.27
2023-11-07T17:45:06.708Z,4.49
2023-11-07T17:47:36.584Z,4.06
2023-11-07T17:50:06.453Z,3.40
2023-11-07T17:52:38.707Z,3.51
2023-11-07T17:55:09.208Z,3.82
2023-11-07T17:57:38.957Z,3.82
2023-11-07T18:00:09.766Z,3.67
2023-11-07T18:02:45.312Z,4.16
2023-11-07T18:05:16.194Z,3.93
2023-11-07T18:07:48.529Z,4.12
2023-11-07T18:10:19.219Z,4.05
2023-11-07T18:12:50.257Z,4.28
2023-11-07T18:15:19.972Z,4.46
2023-11-07T18:17:49.780Z,5.12
2023-11-07T18:20:19.471Z,5.94
2023-11-07T18:22:52.529Z,5.27
2023-11-07T18:25:22.373Z,4.54
2023-11-07T18:27:52.084Z,4.89
2023-11-07T18:30:23.842Z,4.69
2023-11-07T18:32:54.572Z,6.09
2023-11-07T18:35:24.430Z,7.55
2023-11-07T18:37:56.894Z,6.82
2023-11-07T18:40:26.887Z,7.26
2023-11-07T18:42:56.628Z,6.29
2023-11-07T18:45:26.522Z,5.54
2023-11-07T18:47:56.334Z,5.46
2023-11-07T18:50:26.144Z,4.08
2023-11-07T18:52:58.615Z,4.11
2023-11-07T18:55:28.316Z,3.62
2023-11-07T18:57:58.032Z,3.06
2023-11-07T19:00:27.795Z,3.27
2023-11-07T19:02:58.086Z,3.67
2023-11-07T19:05:28.757Z,3.49
2023-11-07T19:08:01.125Z,3.16
2023-11-07T19:10:31.293Z,2.83
2023-11-07T19:13:01.062Z,2.23
2023-11-07T19:15:30.788Z,2.49
2023-11-07T19:18:00.538Z,2.71
2023-11-07T19:20:31.984Z,2.65
2023-11-07T19:23:04.341Z,3.42
2023-11-07T19:25:34.040Z,2.99
2023-11-07T19:28:04.595Z,2.63
2023-11-07T19:30:34.477Z,2.67
2023-11-07T19:33:05.604Z,2.71
2023-11-07T19:35:35.419Z,2.80
2023-11-07T19:38:07.708Z,2.73
2023-11-07T19:40:38.272Z,2.70
2023-11-07T19:43:08.297Z,2.59
2023-11-07T19:45:38.593Z,2.69
2023-11-07T19:48:08.811Z,2.57
2023-11-07T19:50:38.850Z,2.71
2023-11-07T19:53:12.227Z,2.72
2023-11-07T19:55:42.761Z,2.67
2023-11-07T19:58:12.498Z,2.97
2023-11-07T20:00:43.939Z,2.88
2023-11-07T20:03:13.770Z,3.00
2023-11-07T20:05:46.136Z,2.98
2023-11-07T20:08:18.586Z,2.98
2023-11-07T20:10:48.286Z,3.05
2023-11-07T20:13:18.034Z,2.86
2023-11-07T20:15:47.723Z,3.03
2023-11-07T20:18:17.583Z,2.86
2023-11-07T20:20:47.394Z,2.97
2023-11-07T20:23:19.705Z,3.05
2023-11-07T20:25:49.527Z,3.16
2023-11-07T20:28:19.256Z,3.42
2023-11-07T20:30:49.021Z,3.74
2023-11-07T20:33:18.979Z,3.64
2023-11-07T20:35:48.838Z,3.91
2023-11-07T20:38:21.248Z,4.15
2023-11-07T20:40:50.964Z,4.30
2023-11-07T20:43:20.643Z,4.48
2023-11-07T20:45:50.632Z,4.47
2023-11-07T20:48:20.456Z,4.51
2023-11-07T20:50:51.630Z,4.97
2023-11-07T20:53:24.214Z,4.75
2023-11-07T20:55:54.928Z,4.34
2023-11-07T20:58:24.846Z,4.79
2023-11-07T21:00:54.659Z,4.35
2023-11-07T21:03:24.429Z,4.38
2023-11-07T21:05:54.201Z,4.76
2023-11-07T21:08:26.506Z,4.41
2023-11-07T21:10:56.206Z,4.25
2023-11-07T21:13:28.467Z,4.50
2023-11-07T21:15:58.214Z,4.42
2023-11-07T21:18:27.977Z,3.95
2023-11-07T21:20:57.788Z,4.03
2023-11-07T21:23:30.146Z,4.09
2023-11-07T21:25:59.875Z,3.83
2023-11-07T21:28:29.667Z,3.77
2023-11-07T21:31:03.496Z,3.80
2023-11-07T21:33:35.097Z,3.99
2023-11-07T21:36:06.814Z,3.75
2023-11-07T21:38:39.165Z,3.71
2023-11-07T21:41:09.191Z,3.90
2023-11-07T21:43:38.933Z,3.87
2023-11-07T21:46:08.713Z,3.51
2023-11-07T21:48:38.538Z,3.64
2023-11-07T21:51:08.291Z,3.71
2023-11-07T21:53:40.716Z,3.59
2023-11-07T21:56:10.427Z,3.48
2023-11-07T21:58:42.418Z,3.56
2023-11-07T22:01:12.332Z,3.52
2023-11-07T22:03:42.531Z,3.61
2023-11-07T22:06:12.333Z,3.46
2023-11-07T22:08:45.285Z,3.53
2023-11-07T22:11:14.977Z,3.52
2023-11-07T22:13:44.701Z,3.64
2023-11-07T22:16:14.775Z,3.67
2023-11-07T22:18:44.524Z,3.61
2023-11-07T22:21:14.878Z,3.60
2023-11-07T22:23:47.867Z,3.70
2023-11-07T22:26:17.587Z,3.61
2023-11-07T22:28:47.362Z,3.54
2023-11-07T22:31:17.139Z,3.83
2023-11-07T22:33:46.952Z,3.66
2023-11-07T22:36:16.825Z,3.89
2023-11-07T22:38:49.530Z,3.45
2023-11-07T22:41:19.232Z,3.46
2023-11-07T22:43:48.962Z,3.71
2023-11-07T22:46:18.668Z,3.72
2023-11-07T22:48:48.599Z,3.47
2023-11-07T22:51:18.442Z,3.50
2023-11-07T22:53:50.823Z,3.42
2023-11-07T22:56:20.728Z,3.69
2023-11-07T22:58:50.445Z,3.56
2023-11-07T23:01:20.612Z,3.55
2023-11-07T23:03:50.405Z,3.53
2023-11-07T23:06:20.480Z,3.72
2023-11-07T23:08:52.808Z,3.63
2023-11-07T23:11:22.523Z,3.67
2023-11-07T23:13:52.236Z,3.72
2023-11-07T23:16:21.910Z,3.60
2023-11-07T23:18:51.749Z,3.73
2023-11-07T23:21:21.566Z,3.52
2023-11-07T23:23:53.925Z,3.62
2023-11-07T23:26:30.857Z,3.65
2023-11-07T23:29:04.394Z,3.60
2023-11-07T23:31:34.984Z,3.66
2023-11-07T23:34:04.828Z,3.47
2023-11-07T23:36:34.821Z,3.33
2023-11-07T23:39:11.887Z,3.70
2023-11-07T23:41:42.052Z,3.51
2023-11-07T23:44:11.819Z,3.66
2023-11-07T23:46:41.906Z,3.42
2023-11-07T23:49:11.641Z,3.56
2023-11-07T23:51:41.469Z,3.79
2023-11-07T23:54:13.999Z,3.38
2023-11-07T23:56:44.431Z,3.51
2023-11-07T23:59:14.461Z,3.41
